createdAt,value
2019-06-07T00:00:37.453Z,84.667969
2019-06-07T00:01:24.255Z,84.667969
2019-06-07T00:02:24.297Z,84.771729
2019-06-07T00:03:29.107Z,84.667969
2019-06-07T00:04:24.554Z,84.570312
2019-06-07T00:05:24.575Z,84.570312
2019-06-07T00:06:25.835Z,84.570312
2019-06-07T00:07:24.718Z,84.667969
2019-06-07T00:08:28.787Z,84.570312
2019-06-07T00:09:24.869Z,84.466553
2019-06-07T00:10:35.737Z,84.466553
2019-06-07T00:11:25.040Z,84.466553
2019-06-07T00:12:25.185Z,84.466553
2019-06-07T00:13:25.199Z,84.570312
2019-06-07T00:14:25.192Z,84.466553
2019-06-07T00:15:28.885Z,84.570312
2019-06-07T00:16:25.216Z,84.667969
2019-06-07T00:17:25.203Z,84.771729
2019-06-07T00:18:26.063Z,84.875488
2019-06-07T00:19:25.493Z,85.015869
2019-06-07T00:20:26.674Z,85.119629
2019-06-07T00:22:06.578Z,85.217285
2019-06-07T00:22:32.750Z,85.321045
2019-06-07T00:23:25.975Z,85.321045
2019-06-07T00:24:25.995Z,85.424805
2019-06-07T00:25:26.028Z,85.321045
2019-06-07T00:26:26.012Z,85.528564
2019-06-07T00:27:26.151Z,85.528564
2019-06-07T00:28:26.172Z,85.424805
2019-06-07T00:29:26.198Z,85.528564
2019-06-07T00:30:45.595Z,85.626221
2019-06-07T00:31:26.295Z,85.565186
2019-06-07T00:32:26.443Z,85.528564
2019-06-07T00:33:26.568Z,85.565186
2019-06-07T00:34:26.699Z,85.668945
2019-06-07T00:35:26.738Z,85.772705
2019-06-07T00:36:26.718Z,85.772705
2019-06-07T00:37:26.878Z,85.772705
2019-06-07T00:38:26.880Z,85.876465
2019-06-07T00:39:27.057Z,85.974121
2019-06-07T00:40:31.691Z,85.876465
2019-06-07T00:41:27.316Z,85.876465
2019-06-07T00:42:27.312Z,85.772705
2019-06-07T00:43:28.487Z,85.876465
2019-06-07T00:44:27.453Z,85.876465
2019-06-07T00:45:27.480Z,85.876465
2019-06-07T00:46:27.480Z,85.772705
2019-06-07T00:47:27.469Z,85.876465
2019-06-07T00:48:32.539Z,85.876465
2019-06-07T00:49:40.314Z,85.974121
2019-06-07T00:50:27.651Z,85.974121
2019-06-07T00:51:27.700Z,85.974121
2019-06-07T00:53:13.696Z,86.077881
2019-06-07T00:53:31.971Z,85.974121
2019-06-07T00:54:27.914Z,85.974121
2019-06-07T00:55:27.898Z,85.876465
2019-06-07T00:56:27.931Z,85.876465
2019-06-07T00:57:27.943Z,85.974121
2019-06-07T00:58:29.508Z,86.181641
2019-06-07T00:59:29.390Z,86.2854
2019-06-07T01:00:28.398Z,86.2854
2019-06-07T01:01:28.410Z,86.383057
2019-06-07T01:02:31.331Z,86.486816
2019-06-07T01:03:28.543Z,86.694336
2019-06-07T01:04:28.696Z,86.895752
2019-06-07T01:05:31.239Z,86.791992
2019-06-07T01:06:28.876Z,86.694336
2019-06-07T01:07:28.937Z,86.694336
2019-06-07T01:08:30.168Z,86.791992
2019-06-07T01:09:29.050Z,86.694336
2019-06-07T01:10:52.103Z,86.791992
2019-06-07T01:11:29.212Z,86.694336
2019-06-07T01:12:29.325Z,86.730957
2019-06-07T01:13:29.455Z,86.694336
2019-06-07T01:14:29.458Z,86.730957
2019-06-07T01:15:29.536Z,86.730957
2019-06-07T01:16:52.987Z,86.834717
2019-06-07T01:17:40.755Z,86.938477
2019-06-07T01:18:38.117Z,86.834717
2019-06-07T01:19:29.897Z,86.938477
2019-06-07T01:20:29.897Z,87.036133
2019-06-07T01:21:30.142Z,86.938477
2019-06-07T01:22:30.046Z,86.938477
2019-06-07T01:24:30.204Z,87.036133
2019-06-07T01:25:30.239Z,87.139893
2019-06-07T01:26:30.614Z,87.139893
2019-06-07T01:27:30.335Z,87.036133
2019-06-07T01:28:30.404Z,87.036133
2019-06-07T01:29:31.408Z,86.938477
2019-06-07T01:30:30.563Z,86.938477
2019-06-07T01:31:31.679Z,86.938477
2019-06-07T01:32:31.681Z,86.938477
2019-06-07T01:33:49.733Z,87.078857
2019-06-07T01:34:31.031Z,87.182617
2019-06-07T01:35:31.123Z,87.182617
2019-06-07T01:36:31.305Z,87.078857
2019-06-07T01:37:31.196Z,87.182617
2019-06-07T01:38:31.306Z,87.078857
2019-06-07T01:39:31.956Z,87.286377
2019-06-07T01:40:32.806Z,87.487793
2019-06-07T01:41:31.523Z,87.591553
2019-06-07T01:42:31.605Z,87.731934
2019-06-07T01:43:31.649Z,87.731934
2019-06-07T01:44:31.678Z,87.835693
2019-06-07T01:45:31.740Z,88.043213
2019-06-07T01:46:31.791Z,88.140869
2019-06-07T01:47:32.385Z,88.244629
2019-06-07T01:48:48.378Z,88.348389
2019-06-07T01:49:33.004Z,88.348389
2019-06-07T01:50:32.161Z,88.244629
2019-06-07T01:51:32.208Z,88.140869
2019-06-07T01:52:32.252Z,88.140869
2019-06-07T01:53:32.288Z,88.140869
2019-06-07T01:55:33.355Z,88.140869
2019-06-07T01:56:32.408Z,88.244629
2019-06-07T01:57:45.269Z,88.348389
2019-06-07T01:58:33.502Z,88.348389
2019-06-07T01:59:32.623Z,88.348389
2019-06-07T02:00:32.931Z,88.348389
2019-06-07T02:01:35.061Z,88.348389
2019-06-07T02:02:32.886Z,88.452148
2019-06-07T02:03:33.581Z,88.452148
2019-06-07T02:04:33.680Z,88.348389
2019-06-07T02:05:33.185Z,88.348389
2019-06-07T02:06:33.226Z,88.244629
2019-06-07T02:07:33.446Z,88.244629
2019-06-07T02:08:34.145Z,88.244629
2019-06-07T02:09:33.473Z,88.244629
2019-06-07T02:10:33.885Z,88.244629
2019-06-07T02:11:33.776Z,88.244629
2019-06-07T02:12:41.005Z,88.140869
2019-06-07T02:13:33.686Z,88.140869
2019-06-07T02:14:34.029Z,88.140869
2019-06-07T02:15:36.525Z,88.140869
2019-06-07T02:16:33.720Z,88.140869
2019-06-07T02:17:33.780Z,88.183594
2019-06-07T02:18:35.000Z,88.079834
2019-06-07T02:19:34.036Z,88.079834
2019-06-07T02:20:34.722Z,88.079834
2019-06-07T02:21:34.677Z,88.079834
2019-06-07T02:22:34.407Z,88.079834
2019-06-07T02:23:34.454Z,88.183594
2019-06-07T02:24:35.760Z,88.183594
2019-06-07T02:25:42.207Z,88.287354
2019-06-07T02:26:35.519Z,88.391113
2019-06-07T02:27:34.571Z,88.494873
2019-06-07T02:28:44.841Z,88.592529
2019-06-07T02:29:34.670Z,88.592529
2019-06-07T02:30:43.852Z,88.696289
2019-06-07T02:31:38.984Z,88.592529
2019-06-07T02:32:37.010Z,88.592529
2019-06-07T02:33:39.919Z,88.592529
2019-06-07T02:34:39.462Z,88.592529
2019-06-07T02:35:40.130Z,88.494873
2019-06-07T02:36:40.810Z,88.592529
2019-06-07T02:37:36.731Z,88.494873
2019-06-07T02:38:37.119Z,88.494873
2019-06-07T02:39:38.337Z,88.494873
2019-06-07T02:40:37.344Z,88.592529
2019-06-07T02:41:38.743Z,88.592529
2019-06-07T02:42:40.135Z,88.592529
2019-06-07T02:43:37.028Z,88.592529
2019-06-07T02:44:38.893Z,88.592529
2019-06-07T02:45:42.100Z,88.696289
2019-06-07T02:46:45.748Z,88.696289
2019-06-07T02:47:37.949Z,88.739014
2019-06-07T02:48:39.948Z,88.842773
2019-06-07T02:49:40.751Z,88.94043
2019-06-07T02:50:38.661Z,89.044189
2019-06-07T02:51:40.968Z,89.044189
2019-06-07T02:52:40.139Z,88.94043
2019-06-07T02:53:39.960Z,89.147949
2019-06-07T02:54:39.603Z,89.147949
2019-06-07T02:56:11.617Z,89.251709
2019-06-07T02:56:50.621Z,89.453125
2019-06-07T02:57:40.902Z,89.453125
2019-06-07T02:58:41.354Z,89.453125
2019-06-07T03:00:02.785Z,89.453125
2019-06-07T03:00:59.842Z,89.453125
2019-06-07T03:01:41.332Z,89.556885
2019-06-07T03:02:41.088Z,89.660645
2019-06-07T03:03:39.668Z,89.556885
2019-06-07T03:04:41.484Z,89.660645
2019-06-07T03:05:38.663Z,89.660645
2019-06-07T03:06:40.288Z,89.660645
2019-06-07T03:07:39.345Z,89.764404
2019-06-07T03:08:36.719Z,89.764404
2019-06-07T03:09:37.057Z,89.660645
2019-06-07T03:10:37.616Z,89.660645
2019-06-07T03:11:37.547Z,89.764404
2019-06-07T03:12:36.402Z,89.764404
2019-06-07T03:13:37.392Z,89.764404
2019-06-07T03:14:36.553Z,89.868164
2019-06-07T03:15:45.287Z,89.96582
2019-06-07T03:16:39.087Z,89.96582
2019-06-07T03:17:38.794Z,89.96582
2019-06-07T03:18:36.778Z,89.96582
2019-06-07T03:19:38.141Z,89.96582
2019-06-07T03:20:36.979Z,89.868164
2019-06-07T03:21:41.428Z,89.868164
2019-06-07T03:22:39.775Z,89.868164
2019-06-07T03:23:39.031Z,89.868164
2019-06-07T03:24:41.102Z,89.868164
2019-06-07T03:25:39.095Z,89.868164
2019-06-07T03:27:23.941Z,89.868164
2019-06-07T03:27:46.423Z,89.764404
2019-06-07T03:28:39.546Z,89.764404
2019-06-07T03:29:41.146Z,89.868164
2019-06-07T03:30:51.883Z,89.868164
2019-06-07T03:31:45.528Z,89.868164
2019-06-07T03:32:45.763Z,89.868164
2019-06-07T03:33:42.539Z,89.868164
2019-06-07T03:34:40.855Z,89.96582
2019-06-07T03:35:40.373Z,90.06958
2019-06-07T03:36:40.016Z,90.06958
2019-06-07T03:37:42.164Z,90.06958
2019-06-07T03:38:39.822Z,90.06958
2019-06-07T03:39:40.894Z,90.06958
2019-06-07T03:40:40.106Z,90.026855
2019-06-07T03:41:46.029Z,89.923096
2019-06-07T03:42:40.149Z,89.923096
2019-06-07T03:43:40.578Z,89.923096
2019-06-07T03:44:41.436Z,90.026855
2019-06-07T03:45:41.437Z,90.026855
2019-06-07T03:46:41.382Z,90.026855
2019-06-07T03:47:41.941Z,90.026855
2019-06-07T03:48:41.203Z,90.130615
2019-06-07T03:49:41.747Z,90.130615
2019-06-07T03:50:42.213Z,90.234375
2019-06-07T03:51:40.838Z,90.338135
2019-06-07T03:52:41.427Z,90.435791
2019-06-07T03:53:40.716Z,90.435791
2019-06-07T03:54:39.815Z,90.435791
2019-06-07T03:55:41.230Z,90.435791
2019-06-07T03:56:40.987Z,90.435791
2019-06-07T03:58:29.067Z,90.643311
2019-06-07T03:58:48.921Z,90.643311
2019-06-07T03:59:41.487Z,90.643311
2019-06-07T04:00:42.928Z,90.539551
2019-06-07T04:01:41.125Z,90.393066
2019-06-07T04:02:41.842Z,90.393066
2019-06-07T04:03:46.182Z,90.393066
2019-06-07T04:04:40.054Z,90.393066
2019-06-07T04:05:42.841Z,90.496826
2019-06-07T04:06:42.373Z,90.496826
2019-06-07T04:07:44.065Z,90.496826
2019-06-07T04:08:41.985Z,90.600586
2019-06-07T04:09:42.904Z,90.496826
2019-06-07T04:10:57.808Z,90.393066
2019-06-07T04:11:40.935Z,90.393066
2019-06-07T04:12:43.844Z,90.454102
2019-06-07T04:13:42.611Z,90.356445
2019-06-07T04:14:42.685Z,90.356445
2019-06-07T04:15:41.383Z,90.356445
2019-06-07T04:16:44.549Z,90.148926
2019-06-07T04:17:57.491Z,90.045166
2019-06-07T04:18:42.567Z,89.941406
2019-06-07T04:19:43.195Z,89.84375
2019-06-07T04:20:41.506Z,89.73999
2019-06-07T04:21:42.862Z,89.697266
2019-06-07T04:22:42.711Z,89.697266
2019-06-07T04:23:45.476Z,89.697266
2019-06-07T04:24:42.100Z,89.697266
2019-06-07T04:25:42.586Z,89.697266
2019-06-07T04:26:43.726Z,89.697266
2019-06-07T04:27:41.625Z,89.697266
2019-06-07T04:29:30.181Z,89.593506
2019-06-07T04:30:05.184Z,89.593506
2019-06-07T04:30:42.327Z,89.49585
2019-06-07T04:31:42.717Z,89.39209
2019-06-07T04:32:44.806Z,89.39209
2019-06-07T04:33:43.649Z,89.39209
2019-06-07T04:34:42.949Z,89.39209
2019-06-07T04:35:42.862Z,89.39209
2019-06-07T04:36:56.212Z,89.49585
2019-06-07T04:37:42.197Z,89.49585
2019-06-07T04:38:42.716Z,89.49585
2019-06-07T04:39:44.853Z,89.39209
2019-06-07T04:40:42.726Z,89.39209
2019-06-07T04:41:42.548Z,89.39209
2019-06-07T04:42:45.153Z,89.349365
2019-06-07T04:43:42.957Z,89.453125
2019-06-07T04:44:42.927Z,89.556885
2019-06-07T04:45:50.586Z,89.453125
2019-06-07T04:46:43.016Z,89.147949
2019-06-07T04:47:42.848Z,89.044189
2019-06-07T04:48:43.474Z,88.94043
2019-06-07T04:49:44.185Z,88.793945
2019-06-07T04:50:43.940Z,88.793945
2019-06-07T04:51:43.018Z,88.696289
2019-06-07T04:52:45.286Z,88.696289
2019-06-07T04:53:43.416Z,88.696289
2019-06-07T04:54:45.823Z,88.696289
2019-06-07T04:55:43.171Z,88.696289
2019-06-07T04:56:44.508Z,88.696289
2019-06-07T04:57:43.481Z,88.48877
2019-06-07T04:58:43.325Z,88.48877
2019-06-07T05:00:10.407Z,88.38501
2019-06-07T05:00:52.059Z,88.446045
2019-06-07T05:01:43.516Z,88.446045
2019-06-07T05:02:43.824Z,88.446045
2019-06-07T05:03:44.379Z,88.85498
2019-06-07T05:04:43.980Z,88.757324
2019-06-07T05:05:43.958Z,88.653564
2019-06-07T05:06:43.643Z,88.653564
2019-06-07T05:07:46.176Z,88.653564
2019-06-07T05:08:44.007Z,88.446045
2019-06-07T05:09:43.690Z,88.348389
2019-06-07T05:10:44.190Z,88.244629
2019-06-07T05:11:45.004Z,88.446045
2019-06-07T05:12:44.452Z,88.305664
2019-06-07T05:13:44.246Z,88.305664
2019-06-07T05:14:44.301Z,88.104248
2019-06-07T05:15:43.950Z,87.896729
2019-06-07T05:16:44.592Z,87.792969
2019-06-07T05:17:45.139Z,87.591553
2019-06-07T05:18:43.992Z,87.548828
2019-06-07T05:19:44.650Z,87.445068
2019-06-07T05:20:44.679Z,87.548828
2019-06-07T05:22:02.300Z,86.938477
2019-06-07T05:22:45.151Z,86.730957
2019-06-07T05:24:10.464Z,86.425781
2019-06-07T05:24:44.262Z,86.016846
2019-06-07T05:25:45.420Z,86.38916
2019-06-07T05:26:44.429Z,86.590576
2019-06-07T05:27:46.694Z,86.486816
2019-06-07T05:28:44.493Z,86.486816
2019-06-07T05:29:57.091Z,86.486816
2019-06-07T05:31:03.344Z,86.590576
2019-06-07T05:31:45.528Z,86.450195
2019-06-07T05:32:46.053Z,85.9375
2019-06-07T05:33:44.688Z,85.327148
2019-06-07T05:34:47.209Z,84.716797
2019-06-07T05:35:45.012Z,84.472656
2019-06-07T05:36:45.292Z,84.777832
2019-06-07T05:37:45.922Z,84.881592
2019-06-07T05:38:45.370Z,84.881592
2019-06-07T05:39:46.345Z,84.637451
2019-06-07T05:40:48.477Z,84.741211
2019-06-07T05:41:45.499Z,84.741211
2019-06-07T05:42:46.633Z,84.838867
2019-06-07T05:43:55.181Z,84.533691
2019-06-07T05:44:46.015Z,83.514404
2019-06-07T05:45:47.023Z,83.477783
2019-06-07T05:46:46.847Z,83.374023
2019-06-07T05:47:50.591Z,82.965088
2019-06-07T05:48:46.026Z,81.951904
2019-06-07T05:49:47.100Z,82.25708
2019-06-07T05:50:55.927Z,82.25708
2019-06-07T05:51:46.066Z,82.25708
2019-06-07T05:52:47.507Z,82.965088
2019-06-07T05:53:46.302Z,83.172607
2019-06-07T05:54:47.090Z,83.374023
2019-06-07T05:55:47.617Z,83.068848
2019-06-07T05:56:46.238Z,82.965088
2019-06-07T05:57:50.851Z,82.867432
2019-06-07T05:58:47.277Z,81.341553
2019-06-07T05:59:47.431Z,81.298828
2019-06-07T06:00:47.400Z,81.604004
2019-06-07T06:01:57.226Z,80.993652
2019-06-07T06:03:03.579Z,80.59082
2019-06-07T06:03:48.364Z,80.792236
2019-06-07T06:04:49.104Z,81.298828
2019-06-07T06:05:54.391Z,80.59082
2019-06-07T06:06:47.560Z,80.993652
2019-06-07T06:07:50.428Z,80.853271
2019-06-07T06:08:47.763Z,80.145264
2019-06-07T06:09:48.026Z,80.651855
2019-06-07T06:10:48.783Z,80.651855
2019-06-07T06:11:58.976Z,80.145264
2019-06-07T06:12:51.605Z,79.052734
2019-06-07T06:14:04.914Z,78.094482
2019-06-07T06:14:48.593Z,74.603271
2019-06-07T06:15:58.877Z,70.184326
2019-06-07T06:16:49.909Z,69.580078
2019-06-07T06:17:49.876Z,69.98291
2019-06-07T06:18:49.174Z,70.861816
2019-06-07T06:19:52.431Z,72.814941
2019-06-07T06:21:09.320Z,73.321533
2019-06-07T06:21:49.195Z,74.237061
2019-06-07T06:22:51.103Z,74.572754
2019-06-07T06:23:51.570Z,75.488281
2019-06-07T06:25:28.685Z,74.810791
2019-06-07T06:25:55.761Z,75.622559
2019-06-07T06:26:54.266Z,76.269531
2019-06-07T06:28:09.807Z,75.762939
2019-06-07T06:28:49.617Z,76.568604
2019-06-07T06:29:50.286Z,77.282715
2019-06-07T06:30:49.942Z,75.250244
2019-06-07T06:32:39.382Z,75.793457
2019-06-07T06:32:57.038Z,75.494385
2019-06-07T06:33:49.763Z,76.812744
2019-06-07T06:34:52.786Z,77.01416
2019-06-07T06:35:50.941Z,77.01416
2019-06-07T06:36:50.248Z,77.319336
2019-06-07T06:37:52.806Z,75.964355
2019-06-07T06:38:51.168Z,75.762939
2019-06-07T06:39:50.050Z,76.062012
2019-06-07T06:40:59.255Z,75.457764
2019-06-07T06:41:58.297Z,73.931885
2019-06-07T06:42:50.590Z,74.743652
2019-06-07T06:43:52.307Z,73.931885
2019-06-07T06:44:53.793Z,74.34082
2019-06-07T06:45:50.535Z,74.505615
2019-06-07T06:46:57.167Z,75.927734
2019-06-07T06:47:50.570Z,75.927734
2019-06-07T06:48:54.670Z,75.3479
2019-06-07T06:49:53.942Z,74.267578
2019-06-07T06:50:52.319Z,72.412109
2019-06-07T06:51:52.879Z,71.264648
2019-06-07T06:52:54.049Z,70.019531
2019-06-07T06:53:52.481Z,68.200684
2019-06-07T06:54:59.181Z,68.170166
2019-06-07T06:55:51.385Z,67.767334
2019-06-07T06:56:52.580Z,67.272949
2019-06-07T06:57:52.808Z,63.928223
2019-06-07T06:59:26.619Z,62.799072
2019-06-07T06:59:52.616Z,59.179688
2019-06-07T07:01:02.211Z,56.695557
2019-06-07T07:01:52.571Z,54.669189
2019-06-07T07:03:35.951Z,52.69165
2019-06-07T07:04:10.995Z,53.991699
2019-06-07T07:04:52.496Z,53.894043
2019-06-07T07:05:54.316Z,53.570557
2019-06-07T07:06:53.375Z,54.638672
2019-06-07T07:07:52.879Z,53.540039
2019-06-07T07:08:53.277Z,54.370117
2019-06-07T07:09:57.454Z,53.070068
2019-06-07T07:10:54.741Z,54.119873
2019-06-07T07:12:00.555Z,55.322266
2019-06-07T07:12:52.611Z,55.419922
2019-06-07T07:13:55.822Z,53.417969
2019-06-07T07:14:55.824Z,54.345703
2019-06-07T07:15:57.755Z,53.442383
2019-06-07T07:16:54.372Z,54.718018
2019-06-07T07:18:03.392Z,52.294922
2019-06-07T07:18:54.502Z,53.369141
2019-06-07T07:19:53.090Z,51.916504
2019-06-07T07:20:56.744Z,51.99585
2019-06-07T07:21:53.481Z,50.219727
2019-06-07T07:22:56.421Z,50.817871
2019-06-07T07:24:18.998Z,51.220703
2019-06-07T07:24:54.515Z,50.970459
2019-06-07T07:25:58.565Z,48.754883
2019-06-07T07:26:53.917Z,49.603271
2019-06-07T07:27:55.246Z,48.614502
2019-06-07T07:28:56.815Z,45.367432
2019-06-07T07:30:16.643Z,44.726562
2019-06-07T07:30:55.152Z,43.615723
2019-06-07T07:31:55.795Z,42.724609
2019-06-07T07:32:54.158Z,42.523193
2019-06-07T07:34:28.132Z,43.457031
2019-06-07T07:34:59.952Z,45.269775
2019-06-07T07:36:15.140Z,44.573975
2019-06-07T07:36:59.219Z,45.410156
2019-06-07T07:37:58.726Z,45.727539
2019-06-07T07:39:00.209Z,46.746826
2019-06-07T07:40:00.946Z,47.918701
2019-06-07T07:41:08.736Z,46.185303
2019-06-07T07:42:13.568Z,43.621826
2019-06-07T07:42:56.576Z,45.794678
2019-06-07T07:44:04.677Z,47.613525
2019-06-07T07:44:56.643Z,46.417236
2019-06-07T07:45:58.685Z,47.155762
2019-06-07T07:46:56.334Z,48.675537
2019-06-07T07:48:08.054Z,48.352051
2019-06-07T07:48:56.178Z,47.808838
2019-06-07T07:49:58.059Z,46.636963
2019-06-07T07:51:00.261Z,47.900391
2019-06-07T07:51:58.402Z,49.822998
2019-06-07T07:53:00.270Z,48.321533
2019-06-07T07:54:08.630Z,49.200439
2019-06-07T07:54:56.554Z,50.274658
2019-06-07T07:55:59.760Z,50.170898
2019-06-07T07:56:56.003Z,50.274658
2019-06-07T07:58:00.975Z,49.230957
2019-06-07T07:59:01.407Z,49.804688
2019-06-07T08:00:13.027Z,47.741699
2019-06-07T08:01:07.566Z,46.704102
2019-06-07T08:01:58.538Z,46.655273
2019-06-07T08:02:58.840Z,45.288086
2019-06-07T08:03:56.687Z,45.550537
2019-06-07T08:05:33.745Z,45.672607
2019-06-07T08:05:58.844Z,48.065186
2019-06-07T08:06:56.312Z,45.953369
2019-06-07T08:08:00.234Z,46.447754
2019-06-07T08:08:57.446Z,45.080566
2019-06-07T08:10:00.058Z,48.077393
2019-06-07T08:11:01.230Z,47.53418
2019-06-07T08:12:00.640Z,47.412109
2019-06-07T08:13:21.913Z,46.392822
2019-06-07T08:13:58.861Z,47.53418
2019-06-07T08:15:00.215Z,47.711182
2019-06-07T08:15:59.516Z,46.368408
2019-06-07T08:16:59.284Z,46.893311
2019-06-07T08:18:01.011Z,46.966553
2019-06-07T08:19:03.186Z,46.990967
2019-06-07T08:19:57.757Z,47.467041
2019-06-07T08:21:14.739Z,46.368408
2019-06-07T08:22:01.553Z,48.10791
2019-06-07T08:22:59.635Z,48.803711
2019-06-07T08:24:01.317Z,47.961426
2019-06-07T08:25:01.812Z,47.2229
2019-06-07T08:26:00.997Z,45.904541
2019-06-07T08:27:22.784Z,46.282959
2019-06-07T08:27:59.212Z,45.385742
2019-06-07T08:29:01.899Z,46.54541
2019-06-07T08:30:15.082Z,47.790527
2019-06-07T08:31:06.229Z,47.662354
2019-06-07T08:32:00.744Z,47.98584
2019-06-07T08:33:23.854Z,48.7854
2019-06-07T08:34:00.698Z,49.353027
2019-06-07T08:35:03.020Z,52.46582
2019-06-07T08:36:19.120Z,51.495361
2019-06-07T08:37:01.903Z,51.446533
2019-06-07T08:38:26.331Z,50.048828
2019-06-07T08:39:07.138Z,49.377441
2019-06-07T08:40:01.673Z,51.293945
2019-06-07T08:41:10.886Z,52.093506
2019-06-07T08:42:15.156Z,51.867676
2019-06-07T08:43:12.915Z,49.700928
2019-06-07T08:44:04.251Z,48.364258
2019-06-07T08:45:03.515Z,49.230957
2019-06-07T08:46:06.439Z,49.731445
2019-06-07T08:47:16.578Z,48.956299
2019-06-07T08:48:05.251Z,50.476074
2019-06-07T08:49:04.541Z,51.397705
2019-06-07T08:50:06.253Z,50.445557
2019-06-07T08:51:06.210Z,51.269531
2019-06-07T08:52:07.783Z,51.544189
2019-06-07T08:53:11.409Z,52.246094
2019-06-07T08:54:20.948Z,52.56958
2019-06-07T08:55:04.884Z,53.491211
2019-06-07T08:56:09.001Z,53.118896
2019-06-07T08:57:19.271Z,54.119873
2019-06-07T08:58:08.058Z,53.942871
2019-06-07T08:59:10.699Z,54.742432
2019-06-07T09:00:07.015Z,55.169678
2019-06-07T09:01:06.245Z,55.371094
2019-06-07T09:02:09.929Z,54.998779
2019-06-07T09:03:06.939Z,56.5979
2019-06-07T09:04:07.504Z,56.903076
2019-06-07T09:05:06.705Z,55.297852
2019-06-07T09:06:08.890Z,56.02417
2019-06-07T09:07:14.563Z,55.096436
2019-06-07T09:08:23.322Z,56.445312
2019-06-07T09:09:05.111Z,52.667236
2019-06-07T09:10:09.192Z,51.745605
2019-06-07T09:11:10.118Z,51.220703
2019-06-07T09:12:07.875Z,50.57373
2019-06-07T09:13:10.094Z,48.284912
2019-06-07T09:14:08.745Z,46.826172
2019-06-07T09:15:14.411Z,46.185303
2019-06-07T09:16:08.161Z,45.410156
2019-06-07T09:17:08.639Z,46.966553
2019-06-07T09:19:10.416Z,49.676514
2019-06-07T09:20:07.599Z,49.975586
2019-06-07T09:21:08.971Z,48.260498
2019-06-07T09:22:10.188Z,48.162842
2019-06-07T09:23:11.284Z,47.888184
2019-06-07T09:24:11.140Z,48.284912
2019-06-07T09:25:11.968Z,49.475098
2019-06-07T09:26:15.540Z,50.720215
2019-06-07T09:27:07.609Z,51.641846
2019-06-07T09:28:14.087Z,52.893066
2019-06-07T09:29:09.351Z,52.990723
2019-06-07T09:30:11.141Z,53.094482
2019-06-07T09:31:09.689Z,54.193115
2019-06-07T09:32:10.889Z,54.992676
2019-06-07T09:33:07.000Z,55.194092
2019-06-07T09:34:11.666Z,56.817627
2019-06-07T09:35:12.255Z,54.718018
2019-06-07T09:36:09.307Z,55.047607
2019-06-07T09:37:41.432Z,55.047607
2019-06-07T09:38:17.423Z,56.549072
2019-06-07T09:39:08.175Z,56.243896
2019-06-07T09:40:21.517Z,54.443359
2019-06-07T09:41:07.587Z,54.821777
2019-06-07T09:42:10.397Z,53.320312
2019-06-07T09:43:50.126Z,53.918457
2019-06-07T09:44:21.006Z,55.718994
2019-06-07T09:45:08.917Z,53.894043
2019-06-07T09:46:12.639Z,55.090332
2019-06-07T09:47:21.936Z,55.090332
2019-06-07T09:48:13.231Z,54.766846
2019-06-07T09:49:15.128Z,54.56543
2019-06-07T09:50:11.342Z,53.094482
2019-06-07T09:51:18.981Z,54.321289
2019-06-07T09:52:10.911Z,53.271484
2019-06-07T09:53:20.809Z,54.046631
2019-06-07T09:54:11.236Z,53.546143
2019-06-07T09:55:22.451Z,55.743408
2019-06-07T09:56:11.283Z,54.669189
2019-06-07T09:57:16.123Z,57.775879
2019-06-07T09:58:48.277Z,54.272461
2019-06-07T09:59:12.488Z,55.79834
2019-06-07T10:00:36.687Z,55.57251
2019-06-07T10:01:13.097Z,56.170654
2019-06-07T10:02:13.293Z,55.072021
2019-06-07T10:03:17.531Z,54.394531
2019-06-07T10:04:21.871Z,55.096436
2019-06-07T10:05:13.946Z,56.298828
2019-06-07T10:06:13.384Z,54.998779
2019-06-07T10:07:28.489Z,54.89502
2019-06-07T10:08:40.933Z,55.395508
2019-06-07T10:11:10.508Z,54.370117
2019-06-07T10:12:09.662Z,55.297852
2019-06-07T10:13:10.291Z,57.299805
2019-06-07T10:14:09.961Z,55.371094
2019-06-07T10:15:10.104Z,54.974365
2019-06-07T10:16:10.149Z,54.443359
2019-06-07T10:17:10.298Z,54.241943
2019-06-07T10:18:10.297Z,54.669189
2019-06-07T10:19:10.442Z,53.546143
2019-06-07T10:20:10.504Z,53.02124
2019-06-07T10:21:14.924Z,53.070068
2019-06-07T10:22:10.640Z,54.370117
2019-06-07T10:23:10.704Z,54.272461
2019-06-07T10:24:10.733Z,54.370117
2019-06-07T10:25:10.763Z,53.967285
2019-06-07T10:26:10.736Z,54.071045
2019-06-07T10:27:10.734Z,54.547119
2019-06-07T10:28:10.744Z,54.119873
2019-06-07T10:29:10.737Z,53.869629
2019-06-07T10:30:10.759Z,52.392578
2019-06-07T10:31:11.406Z,51.916504
2019-06-07T10:32:11.359Z,51.470947
2019-06-07T10:33:10.957Z,48.010254
2019-06-07T10:34:11.039Z,48.632812
2019-06-07T10:35:13.816Z,49.578857
2019-06-07T10:36:11.191Z,48.291016
2019-06-07T10:37:15.054Z,46.185303
2019-06-07T10:38:11.259Z,48.297119
2019-06-07T10:39:11.478Z,45.178223
2019-06-07T10:40:11.429Z,43.792725
2019-06-07T10:41:11.290Z,43.817139
2019-06-07T10:42:11.653Z,45.477295
2019-06-07T10:43:14.363Z,44.86084
2019-06-07T10:44:11.532Z,43.035889
2019-06-07T10:45:12.295Z,44.171143
2019-06-07T10:46:12.045Z,44.232178
2019-06-07T10:47:12.276Z,44.573975
2019-06-07T10:48:11.762Z,45.446777
2019-06-07T10:49:12.425Z,45.379639
2019-06-07T10:50:12.211Z,44.146729
2019-06-07T10:51:14.444Z,44.915771
2019-06-07T10:52:13.013Z,44.158936
2019-06-07T10:53:12.536Z,43.701172
2019-06-07T10:54:24.049Z,41.455078
2019-06-07T10:55:12.672Z,43.310547
2019-06-07T10:56:13.183Z,41.906738
2019-06-07T10:57:14.193Z,39.459229
2019-06-07T10:58:13.178Z,40.325928
2019-06-07T10:59:12.314Z,43.609619
2019-06-07T11:00:12.307Z,41.333008
2019-06-07T11:01:12.772Z,43.170166
2019-06-07T11:02:12.009Z,40.582275
2019-06-07T11:03:11.920Z,41.07666
2019-06-07T11:04:11.932Z,43.109131
2019-06-07T11:05:12.359Z,41.607666
2019-06-07T11:06:12.254Z,41.784668
2019-06-07T11:07:12.116Z,39.18457
2019-06-07T11:08:13.526Z,38.793945
2019-06-07T11:09:12.112Z,42.907715
2019-06-07T11:10:16.767Z,41.412354
2019-06-07T11:11:12.324Z,37.854004
2019-06-07T11:12:12.501Z,40.606689
2019-06-07T11:13:12.501Z,37.298584
2019-06-07T11:14:12.705Z,37.908936
2019-06-07T11:15:12.947Z,39.202881
2019-06-07T11:16:13.036Z,37.927246
2019-06-07T11:17:13.378Z,39.123535
2019-06-07T11:18:12.527Z,39.044189
2019-06-07T11:19:15.435Z,39.953613
2019-06-07T11:20:12.537Z,40.979004
2019-06-07T11:21:12.410Z,41.436768
2019-06-07T11:22:12.441Z,43.786621
2019-06-07T11:23:12.487Z,41.473389
2019-06-07T11:24:12.598Z,42.614746
2019-06-07T11:25:12.881Z,39.501953
2019-06-07T11:26:12.722Z,39.581299
2019-06-07T11:27:13.796Z,39.18457
2019-06-07T11:28:12.936Z,39.404297
2019-06-07T11:29:12.971Z,40.466309
2019-06-07T11:30:14.419Z,37.890625
2019-06-07T11:31:13.381Z,39.367676
2019-06-07T11:32:13.057Z,37.890625